Time,TemperatureF,DewpointF,PressureIn,WindDirection,WindDirectionDegrees,WindSpeedMPH,WindSpeedGustMPH,Humidity,HourlyPrecipIn,Conditions,Clouds,dailyrainin,SoftwareType,DateUTC
2013-04-11 00:07:00,42.8,42.3,29.16,North,-999,-999.0,-999.0,98,-99.99,,,-99.99,meteohub,2013-04-10 23:07:00,
2013-04-11 00:17:00,43.0,42.4,29.16,North,-999,-999.0,-999.0,98,-99.99,,,-99.99,meteohub,2013-04-10 23:17:00,
2013-04-11 00:27:00,43.2,42.6,29.16,North,-999,-999.0,-999.0,98,-99.99,,,-99.99,meteohub,2013-04-10 23:27:00,
2013-04-11 00:32:00,43.3,42.8,29.16,North,-999,-999.0,-999.0,98,-99.99,,,-99.99,meteohub,2013-04-10 23:32:00,
2013-04-11 00:42:00,43.3,42.8,29.16,North,-999,-999.0,-999.0,98,-99.99,,,-99.99,meteohub,2013-04-10 23:42:00,
2013-04-11 00:47:00,43.5,43.0,29.16,North,-999,-999.0,-999.0,98,-99.99,,,-99.99,meteohub,2013-04-10 23:47:00,
2013-04-11 00:52:00,43.5,43.0,29.13,North,-999,-999.0,-999.0,98,-99.99,,,-99.99,meteohub,2013-04-10 23:52:00,
2013-04-11 00:57:00,43.5,43.0,29.13,North,-999,-999.0,-999.0,98,-99.99,,,-99.99,meteohub,2013-04-10 23:57:00,
2013-04-11 01:02:00,43.3,42.8,29.13,North,-999,-999.0,-999.0,98,-99.99,,,-99.99,meteohub,2013-04-11 00:02:00,
2013-04-11 01:07:00,43.3,42.8,29.13,North,-999,-999.0,-999.0,98,-99.99,,,-99.99,meteohub,2013-04-11 00:07:00,
2013-04-11 01:17:00,43.3,42.8,29.13,North,-999,-999.0,-999.0,98,-99.99,,,-99.99,meteohub,2013-04-11 00:17:00,
2013-04-11 01:22:00,43.2,42.6,29.13,North,-999,-999.0,-999.0,98,-99.99,,,-99.99,meteohub,2013-04-11 00:22:00,
2013-04-11 01:27:00,43.2,42.6,29.13,North,-999,-999.0,-999.0,98,-99.99,,,-99.99,meteohub,2013-04-11 00:27:00,
2013-04-11 01:37:00,43.2,42.6,29.13,North,-999,-999.0,-999.0,98,-99.99,,,-99.99,meteohub,2013-04-11 00:37:00,
2013-04-11 01:42:00,43.2,42.6,29.13,North,-999,-999.0,-999.0,98,-99.99,,,-99.99,meteohub,2013-04-11 00:42:00,
2013-04-11 01:52:00,43.2,42.6,29.13,North,-999,-999.0,-999.0,98,-99.99,,,-99.99,meteohub,2013-04-11 00:52:00,
2013-04-11 01:57:00,43.2,42.6,29.13,North,-999,-999.0,-999.0,98,-99.99,,,-99.99,meteohub,2013-04-11 00:57:00,
2013-04-11 02:02:00,43.2,42.6,29.13,North,-999,-999.0,-999.0,98,-99.99,,,-99.99,meteohub,2013-04-11 01:02:00,
2013-04-11 02:07:00,43.2,42.6,29.10,North,-999,-999.0,-999.0,98,-99.99,,,-99.99,meteohub,2013-04-11 01:07:00,
2013-04-11 02:17:00,43.2,42.6,29.10,North,-999,-999.0,-999.0,98,-99.99,,,-99.99,meteohub,2013-04-11 01:17:00,
2013-04-11 02:27:00,43.2,42.6,29.10,North,-999,-999.0,-999.0,98,-99.99,,,-99.99,meteohub,2013-04-11 01:27:00,
2013-04-11 02:37:00,43.0,42.4,29.10,North,-999,-999.0,-999.0,98,-99.99,,,-99.99,meteohub,2013-04-11 01:37:00,
2013-04-11 02:42:00,43.0,42.4,29.10,North,-999,-999.0,-999.0,98,-99.99,,,-99.99,meteohub,2013-04-11 01:42:00,
2013-04-11 02:47:00,43.0,42.4,29.10,North,-999,-999.0,-999.0,98,-99.99,,,-99.99,meteohub,2013-04-11 01:47:00,
2013-04-11 02:57:00,43.0,42.4,29.10,North,-999,-999.0,-999.0,98,-99.99,,,-99.99,meteohub,2013-04-11 01:57:00,
2013-04-11 03:02:00,43.0,42.4,29.10,North,-999,-999.0,-999.0,98,-99.99,,,-99.99,meteohub,2013-04-11 02:02:00,
2013-04-11 03:07:00,42.8,42.3,29.10,North,-999,-999.0,-999.0,98,-99.99,,,-99.99,meteohub,2013-04-11 02:07:00,
2013-04-11 03:17:00,43.0,42.4,29.10,North,-999,-999.0,-999.0,98,-99.99,,,-99.99,meteohub,2013-04-11 02:17:00,
2013-04-11 03:27:00,43.0,42.4,29.10,North,-999,-999.0,-999.0,98,-99.99,,,-99.99,meteohub,2013-04-11 02:27:00,
2013-04-11 03:37:00,43.0,42.4,29.10,North,-999,-999.0,-999.0,98,-99.99,,,-99.99,meteohub,2013-04-11 02:37:00,
2013-04-11 03:42:00,43.0,42.4,29.10,North,-999,-999.0,-999.0,98,-99.99,,,-99.99,meteohub,2013-04-11 02:42:00,
2013-04-11 03:47:00,43.0,42.4,29.10,North,-999,-999.0,-999.0,98,-99.99,,,-99.99,meteohub,2013-04-11 02:47:00,
2013-04-11 03:57:00,43.0,42.4,29.10,North,-999,-999.0,-999.0,98,-99.99,,,-99.99,meteohub,2013-04-11 02:57:00,
2013-04-11 04:02:00,43.0,42.4,29.10,North,-999,-999.0,-999.0,98,-99.99,,,-99.99,meteohub,2013-04-11 03:02:00,
2013-04-11 04:07:00,43.0,42.4,29.10,North,-999,-999.0,-999.0,98,-99.99,,,-99.99,meteohub,2013-04-11 03:07:00,
2013-04-11 04:12:00,43.0,42.4,29.10,North,-999,-999.0,-999.0,98,-99.99,,,-99.99,meteohub,2013-04-11 03:12:00,
2013-04-11 04:17:00,43.0,42.4,29.10,North,-999,-999.0,-999.0,98,-99.99,,,-99.99,meteohub,2013-04-11 03:17:00,
2013-04-11 04:22:00,43.0,42.4,29.10,North,-999,-999.0,-999.0,98,-99.99,,,-99.99,meteohub,2013-04-11 03:22:00,
2013-04-11 04:27:00,43.0,42.4,29.10,North,-999,-999.0,-999.0,98,-99.99,,,-99.99,meteohub,2013-04-11 03:27:00,
2013-04-11 04:37:00,42.8,42.3,29.10,North,-999,-999.0,-999.0,98,-99.99,,,-99.99,meteohub,2013-04-11 03:37:00,
2013-04-11 04:42:00,42.8,42.3,29.10,North,-999,-999.0,-999.0,98,-99.99,,,-99.99,meteohub,2013-04-11 03:42:00,
2013-04-11 04:47:00,42.6,42.1,29.10,North,-999,-999.0,-999.0,98,-99.99,,,-99.99,meteohub,2013-04-11 03:47:00,
2013-04-11 04:52:00,42.4,41.9,29.10,North,-999,-999.0,-999.0,98,-99.99,,,-99.99,meteohub,2013-04-11 03:52:00,
2013-04-11 05:02:00,42.3,41.7,29.10,North,-999,-999.0,-999.0,98,-99.99,,,-99.99,meteohub,2013-04-11 04:02:00,
2013-04-11 05:07:00,42.3,41.7,29.10,North,-999,-999.0,-999.0,98,-99.99,,,-99.99,meteohub,2013-04-11 04:07:00,
2013-04-11 05:17:00,42.3,41.7,29.10,North,-999,-999.0,-999.0,98,-99.99,,,-99.99,meteohub,2013-04-11 04:17:00,
2013-04-11 05:22:00,42.1,41.5,29.10,North,-999,-999.0,-999.0,98,-99.99,,,-99.99,meteohub,2013-04-11 04:22:00,
2013-04-11 05:32:00,42.1,41.5,29.10,North,-999,-999.0,-999.0,98,-99.99,,,-99.99,meteohub,2013-04-11 04:32:00,
2013-04-11 05:37:00,42.1,41.5,29.10,North,-999,-999.0,-999.0,98,-99.99,,,-99.99,meteohub,2013-04-11 04:37:00,
2013-04-11 05:47:00,41.9,41.4,29.10,North,-999,-999.0,-999.0,98,-99.99,,,-99.99,meteohub,2013-04-11 04:47:00,
2013-04-11 05:52:00,41.9,41.4,29.10,North,-999,-999.0,-999.0,98,-99.99,,,-99.99,meteohub,2013-04-11 04:52:00,
2013-04-11 05:57:00,41.9,41.4,29.10,North,-999,-999.0,-999.0,98,-99.99,,,-99.99,meteohub,2013-04-11 04:57:00,
2013-04-11 06:02:00,41.9,41.4,29.10,North,-999,-999.0,-999.0,98,-99.99,,,-99.99,meteohub,2013-04-11 05:02:00,
2013-04-11 06:07:00,41.9,41.4,29.10,North,-999,-999.0,-999.0,98,-99.99,,,-99.99,meteohub,2013-04-11 05:07:00,
2013-04-11 06:12:00,41.7,41.2,29.10,North,-999,-999.0,-999.0,98,-99.99,,,-99.99,meteohub,2013-04-11 05:12:00,
2013-04-11 06:17:00,41.7,41.2,29.10,North,-999,-999.0,-999.0,98,-99.99,,,-99.99,meteohub,2013-04-11 05:17:00,
2013-04-11 06:22:00,41.7,41.2,29.10,North,-999,-999.0,-999.0,98,-99.99,,,-99.99,meteohub,2013-04-11 05:22:00,
2013-04-11 06:27:00,41.7,41.2,29.10,North,-999,-999.0,-999.0,98,-99.99,,,-99.99,meteohub,2013-04-11 05:27:00,
2013-04-11 06:32:00,41.7,41.2,29.10,North,-999,-999.0,-999.0,98,-99.99,,,-99.99,meteohub,2013-04-11 05:32:00,
2013-04-11 06:37:00,41.7,41.2,29.13,North,-999,-999.0,-999.0,98,-99.99,,,-99.99,meteohub,2013-04-11 05:37:00,
2013-04-11 06:42:00,41.7,41.2,29.13,North,-999,-999.0,-999.0,98,-99.99,,,-99.99,meteohub,2013-04-11 05:42:00,
2013-04-11 06:47:00,41.7,41.2,29.13,North,-999,-999.0,-999.0,98,-99.99,,,-99.99,meteohub,2013-04-11 05:47:00,
2013-04-11 06:57:00,41.7,41.2,29.13,North,-999,-999.0,-999.0,98,-99.99,,,-99.99,meteohub,2013-04-11 05:57:00,
2013-04-11 07:02:00,41.7,41.2,29.13,North,-999,-999.0,-999.0,98,-99.99,,,-99.99,meteohub,2013-04-11 06:02:00,
2013-04-11 07:07:00,41.7,41.2,29.13,North,-999,-999.0,-999.0,98,-99.99,,,-99.99,meteohub,2013-04-11 06:07:00,
2013-04-11 07:12:00,41.7,41.2,29.13,North,-999,-999.0,-999.0,98,-99.99,,,-99.99,meteohub,2013-04-11 06:12:00,
2013-04-11 07:17:00,41.7,41.2,29.13,North,-999,-999.0,-999.0,98,-99.99,,,-99.99,meteohub,2013-04-11 06:17:00,
2013-04-11 07:22:00,41.7,41.2,29.13,North,-999,-999.0,-999.0,98,-99.99,,,-99.99,meteohub,2013-04-11 06:22:00,
2013-04-11 07:32:00,41.7,41.2,29.13,North,-999,-999.0,-999.0,98,-99.99,,,-99.99,meteohub,2013-04-11 06:32:00,
2013-04-11 07:37:00,41.7,41.2,29.16,North,-999,-999.0,-999.0,98,-99.99,,,-99.99,meteohub,2013-04-11 06:37:00,
2013-04-11 07:47:00,41.9,41.4,29.16,North,-999,-999.0,-999.0,98,-99.99,,,-99.99,meteohub,2013-04-11 06:47:00,
2013-04-11 07:57:00,41.9,41.4,29.16,North,-999,-999.0,-999.0,98,-99.99,,,-99.99,meteohub,2013-04-11 06:57:00,
2013-04-11 08:02:00,41.9,41.4,29.16,North,-999,-999.0,-999.0,98,-99.99,,,-99.99,meteohub,2013-04-11 07:02:00,
2013-04-11 08:07:00,41.9,41.4,29.16,North,-999,-999.0,-999.0,98,-99.99,,,-99.99,meteohub,2013-04-11 07:07:00,
2013-04-11 08:12:00,42.1,41.5,29.16,North,-999,-999.0,-999.0,98,-99.99,,,-99.99,meteohub,2013-04-11 07:12:00,
2013-04-11 08:17:00,42.1,41.5,29.16,North,-999,-999.0,-999.0,98,-99.99,,,-99.99,meteohub,2013-04-11 07:17:00,
2013-04-11 08:22:00,42.1,41.5,29.16,North,-999,-999.0,-999.0,98,-99.99,,,-99.99,meteohub,2013-04-11 07:22:00,
2013-04-11 08:27:00,42.1,41.5,29.16,North,-999,-999.0,-999.0,98,-99.99,,,-99.99,meteohub,2013-04-11 07:27:00,
2013-04-11 08:32:00,42.3,41.7,29.16,North,-999,-999.0,-999.0,98,-99.99,,,-99.99,meteohub,2013-04-11 07:32:00,
2013-04-11 08:37:00,42.3,41.7,29.19,North,-999,-999.0,-999.0,98,-99.99,,,-99.99,meteohub,2013-04-11 07:37:00,
2013-04-11 08:42:00,42.3,41.7,29.19,North,-999,-999.0,-999.0,98,-99.99,,,-99.99,meteohub,2013-04-11 07:42:00,
2013-04-11 08:47:00,42.3,41.7,29.19,North,-999,-999.0,-999.0,98,-99.99,,,-99.99,meteohub,2013-04-11 07:47:00,
2013-04-11 08:52:00,42.3,41.7,29.19,North,-999,-999.0,-999.0,98,-99.99,,,-99.99,meteohub,2013-04-11 07:52:00,
2013-04-11 08:57:00,42.4,41.9,29.19,North,-999,-999.0,-999.0,98,-99.99,,,-99.99,meteohub,2013-04-11 07:57:00,
2013-04-11 09:02:00,42.4,41.9,29.19,North,-999,-999.0,-999.0,98,-99.99,,,-99.99,meteohub,2013-04-11 08:02:00,
2013-04-11 09:12:00,42.4,41.9,29.19,North,-999,-999.0,-999.0,98,-99.99,,,-99.99,meteohub,2013-04-11 08:12:00,
2013-04-11 09:17:00,42.6,42.1,29.19,North,-999,-999.0,-999.0,98,-99.99,,,-99.99,meteohub,2013-04-11 08:17:00,
2013-04-11 09:27:00,43.0,42.4,29.19,North,-999,-999.0,-999.0,98,-99.99,,,-99.99,meteohub,2013-04-11 08:27:00,
2013-04-11 09:32:00,43.0,42.4,29.19,North,-999,-999.0,-999.0,98,-99.99,,,-99.99,meteohub,2013-04-11 08:32:00,
2013-04-11 09:37:00,43.2,42.6,29.19,North,-999,-999.0,-999.0,98,-99.99,,,-99.99,meteohub,2013-04-11 08:37:00,
2013-04-11 09:42:00,43.3,42.8,29.19,North,-999,-999.0,-999.0,98,-99.99,,,-99.99,meteohub,2013-04-11 08:42:00,
2013-04-11 09:52:00,43.5,43.0,29.19,North,-999,-999.0,-999.0,98,-99.99,,,-99.99,meteohub,2013-04-11 08:52:00,
2013-04-11 09:57:00,43.7,43.2,29.19,North,-999,-999.0,-999.0,98,-99.99,,,-99.99,meteohub,2013-04-11 08:57:00,
2013-04-11 10:02:00,43.9,43.3,29.19,North,-999,-999.0,-999.0,98,-99.99,,,-99.99,meteohub,2013-04-11 09:02:00,
2013-04-11 10:07:00,44.2,43.7,29.22,North,-999,-999.0,-999.0,98,-99.99,,,-99.99,meteohub,2013-04-11 09:07:00,
2013-04-11 10:12:00,44.2,43.7,29.22,North,-999,-999.0,-999.0,98,-99.99,,,-99.99,meteohub,2013-04-11 09:12:00,
2013-04-11 10:17:00,44.2,43.7,29.22,North,-999,-999.0,-999.0,98,-99.99,,,-99.99,meteohub,2013-04-11 09:17:00,
2013-04-11 10:27:00,44.4,43.9,29.22,North,-999,-999.0,-999.0,98,-99.99,,,-99.99,meteohub,2013-04-11 09:27:00,
2013-04-11 10:32:00,44.2,43.7,29.22,North,-999,-999.0,-999.0,98,-99.99,,,-99.99,meteohub,2013-04-11 09:32:00,
2013-04-11 10:37:00,44.4,43.9,29.22,North,-999,-999.0,-999.0,98,-99.99,,,-99.99,meteohub,2013-04-11 09:37:00,
2013-04-11 10:42:00,44.8,44.2,29.22,North,-999,-999.0,-999.0,98,-99.99,,,-99.99,meteohub,2013-04-11 09:42:00,
2013-04-11 10:47:00,44.6,44.1,29.22,North,-999,-999.0,-999.0,98,-99.99,,,-99.99,meteohub,2013-04-11 09:47:00,
2013-04-11 10:52:00,44.4,43.9,29.22,North,-999,-999.0,-999.0,98,-99.99,,,-99.99,meteohub,2013-04-11 09:52:00,
2013-04-11 11:02:00,44.8,44.2,29.22,North,-999,-999.0,-999.0,98,-99.99,,,-99.99,meteohub,2013-04-11 10:02:00,
2013-04-11 11:07:00,45.5,45.0,29.22,North,-999,-999.0,-999.0,98,-99.99,,,-99.99,meteohub,2013-04-11 10:07:00,
2013-04-11 11:12:00,46.0,45.5,29.22,North,-999,-999.0,-999.0,98,-99.99,,,-99.99,meteohub,2013-04-11 10:12:00,
2013-04-11 11:17:00,45.9,45.1,29.22,North,-999,-999.0,-999.0,97,-99.99,,,-99.99,meteohub,2013-04-11 10:17:00,
2013-04-11 11:22:00,45.7,44.6,29.22,North,-999,-999.0,-999.0,96,-99.99,,,-99.99,meteohub,2013-04-11 10:22:00,
2013-04-11 11:32:00,46.2,44.6,29.22,North,-999,-999.0,-999.0,94,-99.99,,,-99.99,meteohub,2013-04-11 10:32:00,
2013-04-11 11:37:00,46.2,44.6,29.22,North,-999,-999.0,-999.0,94,-99.99,,,-99.99,meteohub,2013-04-11 10:37:00,
2013-04-11 11:42:00,46.2,44.2,29.22,North,-999,-999.0,-999.0,93,-99.99,,,-99.99,meteohub,2013-04-11 10:42:00,
2013-04-11 11:47:00,46.4,44.4,29.22,North,-999,-999.0,-999.0,93,-99.99,,,-99.99,meteohub,2013-04-11 10:47:00,
2013-04-11 11:57:00,46.2,44.1,29.22,North,-999,-999.0,-999.0,92,-99.99,,,-99.99,meteohub,2013-04-11 10:57:00,
2013-04-11 12:02:00,46.4,43.7,29.22,North,-999,-999.0,-999.0,90,-99.99,,,-99.99,meteohub,2013-04-11 11:02:00,
2013-04-11 12:07:00,46.6,43.9,29.22,North,-999,-999.0,-999.0,90,-99.99,,,-99.99,meteohub,2013-04-11 11:07:00,
2013-04-11 12:12:00,46.6,43.9,29.22,North,-999,-999.0,-999.0,90,-99.99,,,-99.99,meteohub,2013-04-11 11:12:00,
2013-04-11 12:22:00,46.9,44.2,29.22,North,-999,-999.0,-999.0,90,-99.99,,,-99.99,meteohub,2013-04-11 11:22:00,
2013-04-11 12:32:00,46.8,43.7,29.22,North,-999,-999.0,-999.0,89,-99.99,,,-99.99,meteohub,2013-04-11 11:32:00,
2013-04-11 12:37:00,46.8,43.3,29.22,North,-999,-999.0,-999.0,88,-99.99,,,-99.99,meteohub,2013-04-11 11:37:00,
2013-04-11 12:42:00,46.6,43.0,29.22,North,-999,-999.0,-999.0,87,-99.99,,,-99.99,meteohub,2013-04-11 11:42:00,
2013-04-11 12:47:00,46.4,42.8,29.22,North,-999,-999.0,-999.0,87,-99.99,,,-99.99,meteohub,2013-04-11 11:47:00,
2013-04-11 12:57:00,47.1,44.1,29.22,North,-999,-999.0,-999.0,89,-99.99,,,-99.99,meteohub,2013-04-11 11:57:00,
2013-04-11 13:02:00,47.1,43.7,29.22,North,-999,-999.0,-999.0,88,-99.99,,,-99.99,meteohub,2013-04-11 12:02:00,
2013-04-11 13:07:00,47.7,44.2,29.22,North,-999,-999.0,-999.0,88,-99.99,,,-99.99,meteohub,2013-04-11 12:07:00,
2013-04-11 13:12:00,47.7,44.2,29.22,North,-999,-999.0,-999.0,88,-99.99,,,-99.99,meteohub,2013-04-11 12:12:00,
2013-04-11 13:17:00,47.8,44.4,29.22,North,-999,-999.0,-999.0,88,-99.99,,,-99.99,meteohub,2013-04-11 12:17:00,
2013-04-11 13:22:00,47.5,43.9,29.22,North,-999,-999.0,-999.0,87,-99.99,,,-99.99,meteohub,2013-04-11 12:22:00,
2013-04-11 13:27:00,47.5,43.5,29.22,North,-999,-999.0,-999.0,86,-99.99,,,-99.99,meteohub,2013-04-11 12:27:00,
2013-04-11 13:37:00,48.2,44.2,29.22,North,-999,-999.0,-999.0,86,-99.99,,,-99.99,meteohub,2013-04-11 12:37:00,
2013-04-11 13:42:00,48.0,44.1,29.22,North,-999,-999.0,-999.0,86,-99.99,,,-99.99,meteohub,2013-04-11 12:42:00,
2013-04-11 13:52:00,48.4,44.1,29.22,North,-999,-999.0,-999.0,85,-99.99,,,-99.99,meteohub,2013-04-11 12:52:00,
2013-04-11 13:57:00,48.0,43.7,29.22,North,-999,-999.0,-999.0,85,-99.99,,,-99.99,meteohub,2013-04-11 12:57:00,
2013-04-11 14:02:00,48.2,43.9,29.22,North,-999,-999.0,-999.0,85,-99.99,,,-99.99,meteohub,2013-04-11 13:02:00,
2013-04-11 14:12:00,48.7,44.4,29.22,North,-999,-999.0,-999.0,85,-99.99,,,-99.99,meteohub,2013-04-11 13:12:00,
2013-04-11 14:17:00,49.8,45.9,29.22,North,-999,-999.0,-999.0,86,-99.99,,,-99.99,meteohub,2013-04-11 13:17:00,
2013-04-11 14:22:00,50.5,46.2,29.22,North,-999,-999.0,-999.0,85,-99.99,,,-99.99,meteohub,2013-04-11 13:22:00,
2013-04-11 14:27:00,51.6,46.9,29.22,North,-999,-999.0,-999.0,84,-99.99,,,-99.99,meteohub,2013-04-11 13:27:00,
2013-04-11 14:32:00,52.7,47.3,29.22,North,-999,-999.0,-999.0,82,-99.99,,,-99.99,meteohub,2013-04-11 13:32:00,
2013-04-11 14:42:00,54.0,46.9,29.22,North,-999,-999.0,-999.0,77,-99.99,,,-99.99,meteohub,2013-04-11 13:42:00,
2013-04-11 14:52:00,54.0,45.9,29.22,North,-999,-999.0,-999.0,74,-99.99,,,-99.99,meteohub,2013-04-11 13:52:00,
2013-04-11 14:57:00,53.2,44.8,29.22,North,-999,-999.0,-999.0,73,-99.99,,,-99.99,meteohub,2013-04-11 13:57:00,
2013-04-11 15:07:00,54.3,45.5,29.22,North,-999,-999.0,-999.0,72,-99.99,,,-99.99,meteohub,2013-04-11 14:07:00,
2013-04-11 15:12:00,54.1,45.3,29.22,North,-999,-999.0,-999.0,72,-99.99,,,-99.99,meteohub,2013-04-11 14:12:00,
2013-04-11 15:17:00,54.9,45.3,29.22,North,-999,-999.0,-999.0,70,-99.99,,,-99.99,meteohub,2013-04-11 14:17:00,
2013-04-11 15:27:00,55.4,45.0,29.19,North,-999,-999.0,-999.0,68,-99.99,,,-99.99,meteohub,2013-04-11 14:27:00,
2013-04-11 15:32:00,54.3,43.7,29.19,North,-999,-999.0,-999.0,67,-99.99,,,-99.99,meteohub,2013-04-11 14:32:00,
2013-04-11 15:37:00,54.1,43.5,29.19,North,-999,-999.0,-999.0,67,-99.99,,,-99.99,meteohub,2013-04-11 14:37:00,
2013-04-11 15:42:00,54.0,43.7,29.19,North,-999,-999.0,-999.0,68,-99.99,,,-99.99,meteohub,2013-04-11 14:42:00,
2013-04-11 15:52:00,53.8,43.9,29.19,North,-999,-999.0,-999.0,69,-99.99,,,-99.99,meteohub,2013-04-11 14:52:00,
2013-04-11 16:02:00,57.0,45.9,29.19,North,-999,-999.0,-999.0,66,-99.99,,,-99.99,meteohub,2013-04-11 15:02:00,
2013-04-11 16:07:00,58.8,46.8,29.19,North,-999,-999.0,-999.0,64,-99.99,,,-99.99,meteohub,2013-04-11 15:07:00,
2013-04-11 16:17:00,59.4,44.6,29.19,North,-999,-999.0,-999.0,58,-99.99,,,-99.99,meteohub,2013-04-11 15:17:00,
2013-04-11 16:27:00,59.4,44.1,29.19,North,-999,-999.0,-999.0,57,-99.99,,,-99.99,meteohub,2013-04-11 15:27:00,
2013-04-11 16:32:00,59.9,43.2,29.19,North,-999,-999.0,-999.0,54,-99.99,,,-99.99,meteohub,2013-04-11 15:32:00,
2013-04-11 16:37:00,58.1,42.1,29.19,North,-999,-999.0,-999.0,55,-99.99,,,-99.99,meteohub,2013-04-11 15:37:00,
2013-04-11 16:42:00,57.0,41.5,29.19,North,-999,-999.0,-999.0,56,-99.99,,,-99.99,meteohub,2013-04-11 15:42:00,
2013-04-11 16:47:00,56.1,41.2,29.19,North,-999,-999.0,-999.0,57,-99.99,,,-99.99,meteohub,2013-04-11 15:47:00,
2013-04-11 16:52:00,55.6,41.5,29.16,North,-999,-999.0,-999.0,59,-99.99,,,-99.99,meteohub,2013-04-11 15:52:00,
2013-04-11 17:02:00,54.9,42.1,29.16,North,-999,-999.0,-999.0,62,-99.99,,,-99.99,meteohub,2013-04-11 16:02:00,
2013-04-11 17:07:00,54.9,42.4,29.19,North,-999,-999.0,-999.0,63,-99.99,,,-99.99,meteohub,2013-04-11 16:07:00,
2013-04-11 17:17:00,57.7,44.4,29.19,North,-999,-999.0,-999.0,61,-99.99,,,-99.99,meteohub,2013-04-11 16:17:00,
2013-04-11 17:27:00,56.7,43.0,29.16,North,-999,-999.0,-999.0,60,-99.99,,,-99.99,meteohub,2013-04-11 16:27:00,
2013-04-11 17:32:00,56.3,42.6,29.16,North,-999,-999.0,-999.0,60,-99.99,,,-99.99,meteohub,2013-04-11 16:32:00,
2013-04-11 17:37:00,55.6,41.9,29.16,North,-999,-999.0,-999.0,60,-99.99,,,-99.99,meteohub,2013-04-11 16:37:00,
2013-04-11 17:42:00,54.9,41.7,29.16,North,-999,-999.0,-999.0,61,-99.99,,,-99.99,meteohub,2013-04-11 16:42:00,
2013-04-11 17:47:00,54.9,42.1,29.16,North,-999,-999.0,-999.0,62,-99.99,,,-99.99,meteohub,2013-04-11 16:47:00,
2013-04-11 17:52:00,55.4,42.6,29.16,North,-999,-999.0,-999.0,62,-99.99,,,-99.99,meteohub,2013-04-11 16:52:00,
2013-04-11 17:57:00,55.2,42.8,29.16,North,-999,-999.0,-999.0,63,-99.99,,,-99.99,meteohub,2013-04-11 16:57:00,
2013-04-11 18:07:00,54.3,42.1,29.16,North,-999,-999.0,-999.0,63,-99.99,,,-99.99,meteohub,2013-04-11 17:07:00,
2013-04-11 18:12:00,53.8,41.9,29.16,North,-999,-999.0,-999.0,64,-99.99,,,-99.99,meteohub,2013-04-11 17:12:00,
2013-04-11 18:22:00,53.4,42.4,29.16,North,-999,-999.0,-999.0,66,-99.99,,,-99.99,meteohub,2013-04-11 17:22:00,
2013-04-11 18:27:00,53.1,42.8,29.16,North,-999,-999.0,-999.0,68,-99.99,,,-99.99,meteohub,2013-04-11 17:27:00,
2013-04-11 18:32:00,52.5,42.6,29.16,North,-999,-999.0,-999.0,69,-99.99,,,-99.99,meteohub,2013-04-11 17:32:00,
2013-04-11 18:37:00,52.2,42.6,29.16,North,-999,-999.0,-999.0,70,-99.99,,,-99.99,meteohub,2013-04-11 17:37:00,
2013-04-11 18:42:00,51.8,42.8,29.16,North,-999,-999.0,-999.0,71,-99.99,,,-99.99,meteohub,2013-04-11 17:42:00,
2013-04-11 18:47:00,51.4,42.8,29.16,North,-999,-999.0,-999.0,72,-99.99,,,-99.99,meteohub,2013-04-11 17:47:00,
2013-04-11 18:52:00,51.3,43.3,29.16,North,-999,-999.0,-999.0,74,-99.99,,,-99.99,meteohub,2013-04-11 17:52:00,
2013-04-11 18:57:00,50.9,43.3,29.16,North,-999,-999.0,-999.0,75,-99.99,,,-99.99,meteohub,2013-04-11 17:57:00,
2013-04-11 19:02:00,50.7,43.7,29.16,North,-999,-999.0,-999.0,77,-99.99,,,-99.99,meteohub,2013-04-11 18:02:00,
2013-04-11 19:12:00,50.4,43.5,29.16,North,-999,-999.0,-999.0,77,-99.99,,,-99.99,meteohub,2013-04-11 18:12:00,
2013-04-11 19:22:00,51.4,42.8,29.16,North,-999,-999.0,-999.0,72,-99.99,,,-99.99,meteohub,2013-04-11 18:22:00,
2013-04-11 19:27:00,51.8,42.3,29.16,North,-999,-999.0,-999.0,70,-99.99,,,-99.99,meteohub,2013-04-11 18:27:00,
2013-04-11 19:32:00,52.0,42.1,29.16,North,-999,-999.0,-999.0,69,-99.99,,,-99.99,meteohub,2013-04-11 18:32:00,
2013-04-11 19:42:00,51.6,41.7,29.16,North,-999,-999.0,-999.0,69,-99.99,,,-99.99,meteohub,2013-04-11 18:42:00,
2013-04-11 19:47:00,51.4,41.5,29.16,North,-999,-999.0,-999.0,69,-99.99,,,-99.99,meteohub,2013-04-11 18:47:00,
2013-04-11 19:57:00,50.9,41.9,29.16,North,-999,-999.0,-999.0,71,-99.99,,,-99.99,meteohub,2013-04-11 18:57:00,
2013-04-11 20:07:00,50.9,42.3,29.16,North,-999,-999.0,-999.0,72,-99.99,,,-99.99,meteohub,2013-04-11 19:07:00,
2013-04-11 20:12:00,50.9,42.6,29.16,North,-999,-999.0,-999.0,73,-99.99,,,-99.99,meteohub,2013-04-11 19:12:00,
2013-04-11 20:17:00,50.7,42.4,29.16,North,-999,-999.0,-999.0,73,-99.99,,,-99.99,meteohub,2013-04-11 19:17:00,
2013-04-11 20:22:00,50.7,42.8,29.16,North,-999,-999.0,-999.0,74,-99.99,,,-99.99,meteohub,2013-04-11 19:22:00,
2013-04-11 20:27:00,50.5,42.6,29.16,North,-999,-999.0,-999.0,74,-99.99,,,-99.99,meteohub,2013-04-11 19:27:00,
2013-04-11 20:32:00,50.2,42.6,29.16,North,-999,-999.0,-999.0,75,-99.99,,,-99.99,meteohub,2013-04-11 19:32:00,
2013-04-11 20:37:00,50.0,42.4,29.16,North,-999,-999.0,-999.0,75,-99.99,,,-99.99,meteohub,2013-04-11 19:37:00,
2013-04-11 20:47:00,50.0,42.8,29.16,North,-999,-999.0,-999.0,76,-99.99,,,-99.99,meteohub,2013-04-11 19:47:00,
2013-04-11 20:52:00,49.8,43.5,29.19,North,-999,-999.0,-999.0,79,-99.99,,,-99.99,meteohub,2013-04-11 19:52:00,
2013-04-11 20:57:00,49.6,43.7,29.19,North,-999,-999.0,-999.0,80,-99.99,,,-99.99,meteohub,2013-04-11 19:57:00,
2013-04-11 21:07:00,48.9,43.7,29.16,North,-999,-999.0,-999.0,82,-99.99,,,-99.99,meteohub,2013-04-11 20:07:00,
2013-04-11 21:17:00,48.6,44.2,29.16,North,-999,-999.0,-999.0,85,-99.99,,,-99.99,meteohub,2013-04-11 20:17:00,
2013-04-11 21:27:00,48.0,44.1,29.16,North,-999,-999.0,-999.0,86,-99.99,,,-99.99,meteohub,2013-04-11 20:27:00,
2013-04-11 21:32:00,47.8,43.9,29.16,North,-999,-999.0,-999.0,86,-99.99,,,-99.99,meteohub,2013-04-11 20:32:00,
2013-04-11 21:37:00,47.8,44.4,29.19,North,-999,-999.0,-999.0,88,-99.99,,,-99.99,meteohub,2013-04-11 20:37:00,
2013-04-11 21:42:00,47.8,45.1,29.19,North,-999,-999.0,-999.0,90,-99.99,,,-99.99,meteohub,2013-04-11 20:42:00,
2013-04-11 21:52:00,47.5,44.8,29.19,North,-999,-999.0,-999.0,90,-99.99,,,-99.99,meteohub,2013-04-11 20:52:00,
2013-04-11 21:57:00,47.5,44.4,29.19,North,-999,-999.0,-999.0,89,-99.99,,,-99.99,meteohub,2013-04-11 20:57:00,
2013-04-11 22:07:00,47.1,44.1,29.19,North,-999,-999.0,-999.0,89,-99.99,,,-99.99,meteohub,2013-04-11 21:07:00,
2013-04-11 22:12:00,46.9,43.9,29.19,North,-999,-999.0,-999.0,89,-99.99,,,-99.99,meteohub,2013-04-11 21:12:00,
2013-04-11 22:22:00,46.6,43.5,29.16,North,-999,-999.0,-999.0,89,-99.99,,,-99.99,meteohub,2013-04-11 21:22:00,
2013-04-11 22:27:00,46.2,43.5,29.16,North,-999,-999.0,-999.0,90,-99.99,,,-99.99,meteohub,2013-04-11 21:27:00,
2013-04-11 22:37:00,46.2,44.2,29.16,North,-999,-999.0,-999.0,93,-99.99,,,-99.99,meteohub,2013-04-11 21:37:00,
2013-04-11 22:47:00,46.2,44.8,29.16,North,-999,-999.0,-999.0,95,-99.99,,,-99.99,meteohub,2013-04-11 21:47:00,
2013-04-11 22:52:00,46.2,45.1,29.16,North,-999,-999.0,-999.0,96,-99.99,,,-99.99,meteohub,2013-04-11 21:52:00,
2013-04-11 22:57:00,46.0,45.0,29.16,North,-999,-999.0,-999.0,96,-99.99,,,-99.99,meteohub,2013-04-11 21:57:00,
2013-04-11 23:02:00,46.2,45.5,29.16,North,-999,-999.0,-999.0,97,-99.99,,,-99.99,meteohub,2013-04-11 22:02:00,
2013-04-11 23:07:00,46.6,45.9,29.16,North,-999,-999.0,-999.0,97,-99.99,,,-99.99,meteohub,2013-04-11 22:07:00,
2013-04-11 23:12:00,46.8,46.2,29.16,North,-999,-999.0,-999.0,98,-99.99,,,-99.99,meteohub,2013-04-11 22:12:00,
2013-04-11 23:22:00,46.9,46.4,29.16,North,-999,-999.0,-999.0,98,-99.99,,,-99.99,meteohub,2013-04-11 22:22:00,
2013-04-11 23:32:00,47.1,46.4,29.16,North,-999,-999.0,-999.0,97,-99.99,,,-99.99,meteohub,2013-04-11 22:32:00,
2013-04-11 23:37:00,47.1,46.4,29.16,North,-999,-999.0,-999.0,97,-99.99,,,-99.99,meteohub,2013-04-11 22:37:00,
2013-04-11 23:42:00,47.3,46.2,29.16,North,-999,-999.0,-999.0,96,-99.99,,,-99.99,meteohub,2013-04-11 22:42:00,
2013-04-11 23:52:00,47.1,46.0,29.16,North,-999,-999.0,-999.0,96,-99.99,,,-99.99,meteohub,2013-04-11 22:52:00,
2013-04-11 23:57:00,47.1,46.0,29.16,North,-999,-999.0,-999.0,96,-99.99,,,-99.99,meteohub,2013-04-11 22:57:00,